Time;durP1;ratioP1;P1;durP2;ratioP2;P2;SDS_P1;SDS_P2;PMS_P1;PMS_P2;Temp;Humidity;BMP_temperature;BMP_pressure;BME280_temperature;BME280_humidity;BME280_pressure;Samples;Min_cycle;Max_cycle;Signal;HPM_P1;HPM_P2
2022/08/17 00:01:22;;;;;;;8.15;7.35;;;23.70;99.90;;;;;;5029848;28;20220;-61
2022/08/17 00:03:49;;;;;;;9.15;8.20;;;23.80;99.90;;;;;;5015222;28;20197;-60
2022/08/17 00:06:22;;;;;;;8.85;7.95;;;23.80;99.90;;;;;;5026984;28;20581;-60
2022/08/17 00:08:54;;;;;;;9.10;7.93;;;23.70;99.90;;;;;;5031860;28;20206;-62
2022/08/17 00:11:24;;;;;;;11.18;9.40;;;23.70;99.90;;;;;;5026605;28;20179;-60
2022/08/17 00:14:00;;;;;;;9.07;7.28;;;23.70;99.90;;;;;;5032536;28;20186;-60
2022/08/17 00:16:33;;;;;;;10.90;7.93;;;23.60;99.90;;;;;;5029444;28;20183;-60
2022/08/17 00:19:01;;;;;;;12.70;7.95;;;23.60;99.90;;;;;;5026270;28;20282;-60
2022/08/17 00:21:28;;;;;;;9.32;7.93;;;23.70;99.90;;;;;;5021288;28;20589;-60
2022/08/17 00:23:54;;;;;;;12.30;8.50;;;23.70;99.90;;;;;;5025558;28;20556;-60
2022/08/17 00:26:21;;;;;;;18.15;11.18;;;23.70;99.90;;;;;;5029558;28;20182;-60
2022/08/17 00:28:47;;;;;;;8.75;7.90;;;23.70;99.90;;;;;;5032236;28;20774;-60
2022/08/17 00:31:13;;;;;;;9.93;8.13;;;23.70;99.90;;;;;;5030758;28;20202;-60
2022/08/17 00:33:41;;;;;;;10.48;7.40;;;23.70;99.90;;;;;;5025186;28;20649;-60
2022/08/17 00:36:07;;;;;;;11.13;8.57;;;23.60;99.90;;;;;;5032375;28;20182;-60
2022/08/17 00:38:33;;;;;;;10.70;7.47;;;23.60;99.90;;;;;;5031716;28;20178;-60
2022/08/17 00:41:04;;;;;;;9.63;8.63;;;23.50;99.90;;;;;;5030402;28;20174;-60
2022/08/17 00:43:35;;;;;;;8.80;7.97;;;23.60;99.90;;;;;;5013953;28;20210;-60
2022/08/17 00:46:11;;;;;;;9.98;8.80;;;23.60;99.90;;;;;;5045175;28;20219;-61
2022/08/17 00:48:38;;;;;;;10.80;8.00;;;23.50;99.90;;;;;;5029231;28;20190;-61
2022/08/17 00:51:03;;;;;;;9.88;7.70;;;23.60;99.90;;;;;;5027786;28;20674;-60
2022/08/17 00:53:31;;;;;;;10.95;7.95;;;23.60;99.90;;;;;;5026482;28;20258;-60
2022/08/17 00:56:00;;;;;;;9.23;8.30;;;23.50;99.90;;;;;;5030547;28;20213;-61
2022/08/17 00:58:26;;;;;;;13.25;8.65;;;23.30;99.90;;;;;;5031689;28;20266;-62
2022/08/17 01:00:52;;;;;;;9.50;7.93;;;23.20;99.90;;;;;;5031036;28;20225;-60
2022/08/17 01:03:24;;;;;;;14.60;9.80;;;23.20;99.90;;;;;;5028270;28;20541;-60
2022/08/17 01:05:55;;;;;;;9.77;8.35;;;23.40;99.90;;;;;;5030709;28;20187;-61
2022/08/17 01:08:25;;;;;;;9.07;7.88;;;23.40;99.90;;;;;;5028671;28;20257;-61
2022/08/17 01:10:54;;;;;;;11.63;9.13;;;23.40;99.90;;;;;;5035101;28;20218;-60
2022/08/17 01:13:23;;;;;;;12.52;9.52;;;23.40;99.90;;;;;;5031752;28;20191;-60
2022/08/17 01:15:57;;;;;;;13.75;9.52;;;23.40;99.90;;;;;;5029660;28;20178;-60
2022/08/17 01:18:25;;;;;;;10.85;9.02;;;23.40;99.90;;;;;;5022629;28;20581;-61
2022/08/17 01:20:53;;;;;;;13.05;8.77;;;23.60;99.90;;;;;;5030462;28;20228;-61
2022/08/17 01:23:22;;;;;;;13.80;10.10;;;23.60;99.90;;;;;;5031751;28;20186;-61
2022/08/17 01:25:54;;;;;;;14.10;9.02;;;23.60;99.90;;;;;;5031029;28;20186;-61
2022/08/17 01:28:20;;;;;;;10.70;9.60;;;23.50;99.90;;;;;;5027287;28;20183;-61
2022/08/17 01:30:47;;;;;;;15.13;10.30;;;23.40;99.90;;;;;;5017435;28;20213;-61
2022/08/17 01:33:12;;;;;;;10.68;8.90;;;23.20;99.90;;;;;;5033631;28;20556;-60
2022/08/17 01:35:39;;;;;;;13.48;8.18;;;23.20;99.90;;;;;;5034338;28;20198;-61
2022/08/17 01:38:05;;;;;;;10.98;9.10;;;23.20;99.90;;;;;;5021527;28;20211;-61
2022/08/17 01:40:41;;;;;;;11.55;9.25;;;23.10;99.90;;;;;;5031273;28;20279;-61
2022/08/17 01:43:36;;;;;;;8.52;7.68;;;23.00;99.90;;;;;;5035131;28;20174;-61
2022/08/17 01:46:02;;;;;;;10.98;8.82;;;23.00;99.90;;;;;;5010588;28;20274;-61
2022/08/17 01:48:33;;;;;;;10.43;9.32;;;23.00;99.90;;;;;;5028739;28;20217;-61
2022/08/17 01:50:59;;;;;;;11.40;9.32;;;23.00;99.90;;;;;;5023761;28;20648;-61
2022/08/17 01:53:41;;;;;;;10.63;9.48;;;23.10;99.90;;;;;;5016960;28;20635;-60
2022/08/17 01:56:13;;;;;;;12.55;9.55;;;23.10;99.90;;;;;;5026058;28;20178;-61
2022/08/17 01:58:40;;;;;;;14.23;9.68;;;23.10;99.90;;;;;;5032984;28;20288;-61
2022/08/17 02:01:07;;;;;;;10.88;8.90;;;23.10;99.90;;;;;;5032289;28;20187;-61
2022/08/17 02:03:34;;;;;;;13.70;9.60;;;23.10;99.90;;;;;;5010992;28;20183;-61
2022/08/17 02:06:01;;;;;;;14.25;9.65;;;23.10;99.90;;;;;;5016683;28;20191;-61
2022/08/17 02:08:27;;;;;;;11.35;9.02;;;23.10;99.90;;;;;;5033282;28;20253;-61
2022/08/17 02:10:54;;;;;;;12.38;8.82;;;23.10;99.90;;;;;;5028215;28;20301;-62
2022/08/17 02:13:20;;;;;;;17.90;9.95;;;23.20;99.90;;;;;;5048161;28;20232;-61
2022/08/17 02:15:46;;;;;;;14.23;10.77;;;23.20;99.90;;;;;;5025617;28;20187;-60
2022/08/17 02:18:13;;;;;;;10.60;9.30;;;23.20;99.90;;;;;;5036761;28;20215;-61
2022/08/17 02:20:40;;;;;;;13.43;9.57;;;23.20;99.90;;;;;;5033916;28;20194;-61
2022/08/17 02:23:07;;;;;;;12.85;9.20;;;23.10;99.90;;;;;;5032654;28;20183;-61
2022/08/17 02:25:35;;;;;;;11.43;9.32;;;23.10;99.90;;;;;;5034233;28;20174;-61
2022/08/17 02:28:01;;;;;;;15.20;11.20;;;23.20;99.90;;;;;;5034284;28;20187;-61
2022/08/17 02:30:27;;;;;;;12.55;10.18;;;23.20;99.90;;;;;;5032537;28;20265;-61
2022/08/17 02:32:54;;;;;;;12.52;9.60;;;23.20;99.90;;;;;;5032976;28;20190;-62
2022/08/17 02:35:22;;;;;;;11.45;9.88;;;23.20;99.90;;;;;;5026106;28;20175;-60
2022/08/17 02:37:49;;;;;;;12.80;9.93;;;23.20;99.90;;;;;;5028778;28;20198;-61
2022/08/17 02:40:16;;;;;;;14.50;9.60;;;23.20;99.90;;;;;;5019438;28;20202;-60
2022/08/17 02:42:43;;;;;;;12.73;10.48;;;23.10;99.90;;;;;;5032912;28;20651;-60
2022/08/17 02:45:13;;;;;;;11.75;8.85;;;23.00;99.90;;;;;;5029978;28;20182;-61
2022/08/17 02:47:39;;;;;;;10.52;9.07;;;23.00;99.90;;;;;;5033437;28;20195;-61
2022/08/17 02:50:06;;;;;;;13.18;10.30;;;23.00;99.90;;;;;;5022883;28;20603;-61
2022/08/17 02:52:37;;;;;;;12.75;9.52;;;23.00;99.90;;;;;;5023660;28;20187;-61
2022/08/17 02:55:08;;;;;;;9.93;9.02;;;23.10;99.90;;;;;;5025522;28;20583;-60
2022/08/17 02:57:34;;;;;;;12.73;9.23;;;23.40;99.90;;;;;;5031933;28;20178;-60
2022/08/17 02:59:59;;;;;;;13.32;11.00;;;23.30;99.90;;;;;;5028849;28;20195;-60
2022/08/17 03:02:25;;;;;;;10.52;8.80;;;23.20;99.90;;;;;;5028680;28;20191;-60
2022/08/17 03:04:51;;;;;;;13.45;10.07;;;23.40;99.90;;;;;;5008231;28;20286;-61
2022/08/17 03:07:16;;;;;;;14.15;10.18;;;23.20;99.90;;;;;;5021980;28;20182;-60
2022/08/17 03:09:42;;;;;;;12.43;8.90;;;23.00;99.90;;;;;;5031296;28;20232;-60
2022/08/17 03:12:11;;;;;;;10.82;8.93;;;23.00;99.90;;;;;;5024536;28;20193;-61
2022/08/17 03:14:39;;;;;;;10.45;8.98;;;23.00;99.90;;;;;;5032028;28;20261;-60
2022/08/17 03:17:05;;;;;;;10.05;8.55;;;22.90;99.90;;;;;;5031720;28;20204;-60
2022/08/17 03:19:30;;;;;;;10.43;8.70;;;22.90;99.90;;;;;;5029177;28;20203;-60
2022/08/17 03:21:57;;;;;;;16.02;10.60;;;22.90;99.90;;;;;;5021485;28;20211;-61
2022/08/17 03:24:23;;;;;;;11.77;9.98;;;22.90;99.90;;;;;;5031219;28;20656;-60
2022/08/17 03:26:49;;;;;;;14.45;11.15;;;22.90;99.90;;;;;;5032108;28;20209;-60
2022/08/17 03:29:17;;;;;;;12.10;9.80;;;22.90;99.90;;;;;;5022827;28;20593;-60
2022/08/17 03:31:47;;;;;;;15.23;10.45;;;22.80;99.90;;;;;;5021818;28;20203;-61
2022/08/17 03:34:16;;;;;;;12.23;9.63;;;22.80;99.90;;;;;;5031423;28;20187;-61
2022/08/17 03:36:43;;;;;;;11.45;9.48;;;22.70;99.90;;;;;;5014923;28;20182;-61
2022/08/17 03:39:09;;;;;;;19.75;11.38;;;22.80;99.90;;;;;;5030082;28;20210;-61
2022/08/17 03:41:35;;;;;;;14.10;11.30;;;22.80;99.90;;;;;;5033088;28;20217;-60
2022/08/17 03:44:01;;;;;;;13.50;10.82;;;22.90;99.90;;;;;;5021116;28;20187;-61
2022/08/17 03:57:35;;;;;;;15.70;11.00;;;22.80;99.90;;;;;;5028849;28;20256;-60
2022/08/17 04:00:00;;;;;;;17.48;11.95;;;22.70;99.90;;;;;;5031002;28;20636;-60
2022/08/17 04:02:30;;;;;;;13.55;10.02;;;22.70;99.90;;;;;;5031287;28;20198;-60
2022/08/17 04:04:57;;;;;;;16.63;11.57;;;22.80;99.90;;;;;;5025818;28;20194;-60
2022/08/17 04:07:26;;;;;;;16.13;11.25;;;22.70;99.90;;;;;;5036116;28;20179;-60
2022/08/17 04:09:52;;;;;;;13.15;9.35;;;22.70;99.90;;;;;;5027473;28;20225;-60
2022/08/17 04:12:20;;;;;;;16.20;9.77;;;22.80;99.90;;;;;;5032698;28;20190;-60
2022/08/17 04:14:47;;;;;;;10.90;8.77;;;22.80;99.90;;;;;;5032870;28;20266;-60
2022/08/17 04:17:13;;;;;;;10.45;9.02;;;22.80;99.90;;;;;;5013736;28;20201;-61
2022/08/17 04:19:39;;;;;;;11.18;9.00;;;22.80;99.90;;;;;;5026667;28;20203;-60
2022/08/17 04:22:05;;;;;;;14.35;9.88;;;22.80;99.90;;;;;;5031509;28;20197;-60
2022/08/17 04:24:31;;;;;;;11.77;9.80;;;22.80;99.90;;;;;;5021387;28;20184;-60
2022/08/17 04:26:57;;;;;;;14.57;10.52;;;22.90;99.90;;;;;;5030131;28;20186;-61
2022/08/17 04:29:24;;;;;;;22.48;9.25;;;22.90;99.90;;;;;;5019557;28;20225;-60
2022/08/17 04:31:51;;;;;;;15.48;8.65;;;23.10;99.90;;;;;;5028774;28;20195;-61
2022/08/17 04:34:18;;;;;;;16.20;11.15;;;23.30;99.90;;;;;;5035725;28;20186;-60
2022/08/17 04:36:43;;;;;;;19.75;10.85;;;23.40;99.90;;;;;;5025206;28;20233;-60
2022/08/17 04:39:09;;;;;;;15.95;12.05;;;23.40;99.90;;;;;;5027707;28;20191;-60
2022/08/17 04:44:19;;;;;;;14.85;11.32;;;23.20;99.90;;;;;;5023627;28;20205;-60
2022/08/17 04:46:45;;;;;;;15.85;12.52;;;23.20;99.90;;;;;;5030882;28;20277;-60
2022/08/17 04:49:11;;;;;;;15.88;11.52;;;23.00;99.90;;;;;;5029006;28;20301;-60
2022/08/17 04:51:41;;;;;;;16.15;10.75;;;23.20;99.90;;;;;;5030823;28;20209;-61
2022/08/17 04:54:10;;;;;;;15.85;11.25;;;23.10;99.90;;;;;;5024176;28;20263;-61
2022/08/17 04:56:37;;;;;;;13.50;10.13;;;22.90;99.90;;;;;;5032313;28;20182;-61
2022/08/17 04:59:14;;;;;;;14.30;10.57;;;22.90;99.90;;;;;;5021750;28;20206;-61
2022/08/17 05:01:40;;;;;;;17.30;12.68;;;22.80;99.90;;;;;;5030725;28;20549;-61
2022/08/17 05:04:09;;;;;;;17.38;11.65;;;22.70;99.90;;;;;;5035151;28;20186;-61
2022/08/17 05:06:35;;;;;;;18.13;10.38;;;22.80;99.90;;;;;;5035599;28;20196;-61
2022/08/17 05:09:01;;;;;;;15.20;10.93;;;22.70;99.90;;;;;;5036135;28;20543;-61
2022/08/17 05:11:28;;;;;;;11.52;9.70;;;22.70;99.90;;;;;;5032192;28;20195;-61
2022/08/17 05:13:55;;;;;;;15.20;10.82;;;22.70;99.90;;;;;;5017988;28;20179;-61
2022/08/17 05:16:22;;;;;;;14.32;10.35;;;22.80;99.90;;;;;;5029396;28;20641;-61
2022/08/17 05:18:49;;;;;;;13.23;10.73;;;22.90;99.90;;;;;;5034417;28;20289;-61
2022/08/17 05:21:15;;;;;;;14.35;9.45;;;22.80;99.90;;;;;;5035703;28;20182;-61
2022/08/17 05:23:41;;;;;;;15.60;9.65;;;23.00;99.90;;;;;;5012607;28;20554;-61
2022/08/17 05:26:07;;;;;;;13.95;11.02;;;23.20;99.90;;;;;;5034764;28;20213;-60
2022/08/17 05:28:33;;;;;;;16.35;11.63;;;23.30;99.90;;;;;;5034227;28;20217;-61
2022/08/17 05:31:01;;;;;;;13.05;10.05;;;23.30;99.90;;;;;;5016652;28;20206;-62
2022/08/17 05:33:30;;;;;;;16.88;11.18;;;23.20;99.90;;;;;;5034629;28;20190;-61
2022/08/17 05:35:57;;;;;;;15.80;11.07;;;23.00;99.90;;;;;;5035029;28;20182;-61
2022/08/17 05:38:24;;;;;;;15.63;10.10;;;22.80;99.90;;;;;;5033932;28;20635;-60
2022/08/17 05:40:53;;;;;;;16.40;12.10;;;22.60;99.90;;;;;;5028341;28;20182;-60
2022/08/17 05:43:24;;;;;;;14.43;10.57;;;22.70;99.90;;;;;;5034373;28;20235;-60
2022/08/17 05:46:02;;;;;;;18.00;12.20;;;22.60;99.90;;;;;;5032948;28;20178;-60
2022/08/17 05:48:34;;;;;;;13.20;10.52;;;22.60;99.90;;;;;;5028293;28;20182;-60
2022/08/17 05:51:06;;;;;;;18.17;10.73;;;22.70;99.90;;;;;;5034476;28;20617;-60
2022/08/17 05:53:52;;;;;;;13.68;10.43;;;22.80;99.90;;;;;;5033691;28;20191;-61
2022/08/17 05:56:18;;;;;;;13.88;10.68;;;22.90;99.90;;;;;;5023330;28;20526;-60
2022/08/17 05:59:11;;;;;;;15.32;10.75;;;22.90;99.90;;;;;;5034798;28;20197;-60
2022/08/17 06:01:54;;;;;;;17.85;11.80;;;22.90;99.90;;;;;;5028165;28;20701;-60
2022/08/17 06:04:29;;;;;;;13.23;9.95;;;22.90;99.90;;;;;;5024853;28;20186;-60
2022/08/17 06:07:11;;;;;;;15.90;10.65;;;22.90;99.90;;;;;;5028386;28;20189;-60
2022/08/17 06:09:46;;;;;;;20.60;11.32;;;23.00;99.90;;;;;;5034254;28;20675;-62
2022/08/17 06:12:46;;;;;;;17.73;11.50;;;23.00;99.90;;;;;;5021920;28;20179;-60
2022/08/17 06:15:40;;;;;;;18.65;12.82;;;23.00;99.90;;;;;;5028087;28;20205;-60
2022/08/17 06:18:09;;;;;;;18.48;12.45;;;23.00;99.90;;;;;;5032556;28;20240;-60
2022/08/17 06:20:53;;;;;;;26.67;12.90;;;23.00;99.90;;;;;;5034250;28;20190;-60
2022/08/17 06:23:48;;;;;;;21.85;12.15;;;23.00;99.90;;;;;;5033809;28;20643;-62
2022/08/17 06:26:19;;;;;;;22.23;12.60;;;23.00;99.90;;;;;;5034616;28;20183;-60
2022/08/17 06:29:01;;;;;;;23.40;14.13;;;22.90;99.90;;;;;;5033789;28;20179;-61
2022/08/17 06:31:33;;;;;;;21.65;13.50;;;22.90;99.90;;;;;;5031214;28;20274;-61
2022/08/17 06:34:01;;;;;;;20.20;14.18;;;22.90;99.90;;;;;;5030404;28;20207;-61
2022/08/17 06:37:11;;;;;;;18.95;13.60;;;22.80;99.90;;;;;;5033872;28;20198;-61
2022/08/17 06:39:40;;;;;;;22.65;14.18;;;22.80;99.90;;;;;;4999857;28;20203;-61
2022/08/17 06:42:52;;;;;;;18.50;14.02;;;22.70;99.90;;;;;;5029777;28;20186;-61
2022/08/17 06:45:25;;;;;;;27.67;17.88;;;22.70;99.90;;;;;;4967752;28;20272;-61
2022/08/17 06:48:07;;;;;;;23.98;15.07;;;22.80;99.90;;;;;;4971756;28;20584;-61
2022/08/17 06:50:42;;;;;;;30.65;15.65;;;22.80;99.90;;;;;;5007408;28;20225;-61
2022/08/17 06:53:27;;;;;;;21.73;13.18;;;22.80;99.90;;;;;;5034051;28;20653;-62
2022/08/17 06:56:06;;;;;;;22.85;14.82;;;22.80;99.90;;;;;;5029518;28;20189;-61
2022/08/17 06:58:34;;;;;;;22.58;14.55;;;22.70;99.90;;;;;;5024425;28;20281;-61
2022/08/17 07:01:08;;;;;;;28.13;17.00;;;22.70;99.90;;;;;;5030109;28;20184;-61
2022/08/17 07:03:37;;;;;;;20.42;15.10;;;22.60;99.90;;;;;;5025791;28;20632;-61
2022/08/17 07:06:19;;;;;;;28.77;16.80;;;22.60;99.90;;;;;;5029286;28;20183;-61
2022/08/17 07:09:06;;;;;;;30.08;17.30;;;22.60;99.90;;;;;;5023940;28;20187;-61
2022/08/17 07:11:47;;;;;;;32.95;19.02;;;22.70;99.90;;;;;;5027968;28;20241;-61
2022/08/17 07:14:36;;;;;;;34.53;20.77;;;22.80;99.90;;;;;;5023290;28;20719;-61
2022/08/17 07:17:07;;;;;;;32.40;19.17;;;23.00;99.90;;;;;;5024566;28;20183;-61
2022/08/17 07:19:37;;;;;;;29.42;18.83;;;23.00;99.90;;;;;;5023649;28;20297;-61
2022/08/17 07:22:18;;;;;;;28.00;19.50;;;23.00;99.90;;;;;;5029407;28;20198;-61
2022/08/17 07:24:57;;;;;;;32.60;17.90;;;22.90;99.90;;;;;;5025422;28;20189;-61
2022/08/17 07:27:32;;;;;;;27.58;18.27;;;22.70;99.90;;;;;;5032141;28;20183;-61
2022/08/17 07:29:57;;;;;;;25.13;17.15;;;22.60;99.90;;;;;;5017324;28;20288;-61
2022/08/17 07:32:31;;;;;;;26.80;18.02;;;22.70;99.90;;;;;;5031415;28;20313;-61
2022/08/17 07:35:01;;;;;;;28.92;19.23;;;22.60;99.90;;;;;;5027923;28;20183;-62
2022/08/17 07:37:26;;;;;;;31.33;18.85;;;22.60;99.90;;;;;;5031005;28;20182;-61
2022/08/17 07:39:55;;;;;;;27.80;19.27;;;22.60;99.90;;;;;;5033065;28;20595;-61
2022/08/17 07:42:21;;;;;;;33.40;19.05;;;22.60;99.90;;;;;;5031593;28;20189;-61
2022/08/17 07:44:54;;;;;;;30.55;20.83;;;22.60;99.90;;;;;;5031493;28;20183;-62
2022/08/17 07:50:28;;;;;;;31.58;20.58;;;22.60;99.90;;;;;;5025452;28;20655;-61
2022/08/17 07:52:53;;;;;;;42.67;24.70;;;22.70;99.90;;;;;;5010414;28;20180;-61
2022/08/17 07:55:30;;;;;;;35.08;20.98;;;22.70;99.90;;;;;;5009173;28;20198;-61
2022/08/17 07:57:57;;;;;;;44.90;22.40;;;22.70;99.90;;;;;;5043963;28;20308;-61
2022/08/17 08:00:23;;;;;;;36.95;20.50;;;22.70;99.90;;;;;;5032731;28;20190;-61
2022/08/17 08:03:13;;;;;;;32.03;20.83;;;22.60;99.90;;;;;;5028284;28;20183;-61
2022/08/17 08:05:55;;;;;;;30.20;19.88;;;22.70;99.90;;;;;;5020182;28;20190;-61
2022/08/17 08:08:31;;;;;;;42.80;22.77;;;22.70;99.90;;;;;;5032316;28;20217;-61
2022/08/17 08:11:11;;;;;;;35.42;20.58;;;22.70;99.90;;;;;;5032217;28;20300;-61
2022/08/17 08:13:42;;;;;;;34.08;20.10;;;22.60;99.90;;;;;;5027525;28;20183;-61
2022/08/17 08:16:25;;;;;;;40.47;24.23;;;22.70;99.90;;;;;;5030823;28;20202;-61
2022/08/17 08:18:59;;;;;;;36.13;21.35;;;22.70;99.90;;;;;;5031553;28;20610;-61
2022/08/17 08:21:38;;;;;;;34.67;21.08;;;22.70;99.90;;;;;;5031829;28;20184;-61
2022/08/17 08:24:27;;;;;;;39.42;23.00;;;22.60;99.90;;;;;;5031782;28;20244;-61
2022/08/17 08:27:00;;;;;;;37.08;21.90;;;22.60;99.90;;;;;;5027869;28;20258;-61
2022/08/17 08:29:38;;;;;;;33.78;21.85;;;22.50;99.90;;;;;;5025304;28;20690;-62
2022/08/17 08:32:38;;;;;;;38.80;23.15;;;22.50;99.90;;;;;;5030186;28;20308;-61
2022/08/17 08:35:25;;;;;;;32.97;21.58;;;22.50;99.90;;;;;;5025401;28;20706;-62
2022/08/17 08:38:13;;;;;;;37.20;23.95;;;22.60;99.90;;;;;;5039290;28;20635;-62
2022/08/17 08:40:49;;;;;;;40.33;22.98;;;22.50;99.90;;;;;;5034771;28;20281;-62
2022/08/17 08:43:34;;;;;;;47.83;27.50;;;22.40;99.90;;;;;;5038324;28;20631;-63
2022/08/17 08:46:35;;;;;;;46.88;25.45;;;22.50;99.90;;;;;;5037498;28;20179;-62
2022/08/17 08:49:16;;;;;;;46.90;28.35;;;22.50;99.90;;;;;;5028166;28;20198;-62
2022/08/17 08:51:48;;;;;;;53.55;28.52;;;22.40;99.90;;;;;;5026529;28;20197;-61
2022/08/17 08:54:16;;;;;;;51.63;27.60;;;22.30;99.90;;;;;;5026964;28;20664;-62
2022/08/17 08:56:50;;;;;;;50.45;26.98;;;22.30;99.90;;;;;;5038851;28;20678;-62
2022/08/17 08:59:34;;;;;;;46.10;27.15;;;22.20;99.90;;;;;;5033221;28;20191;-62
2022/08/17 09:02:15;;;;;;;43.30;27.05;;;22.20;99.90;;;;;;5038139;28;20559;-62
2022/08/17 09:04:50;;;;;;;51.80;29.98;;;22.10;99.90;;;;;;5026717;28;20620;-62
2022/08/17 09:07:40;;;;;;;53.50;30.10;;;21.60;99.90;;;;;;5030341;28;20182;-61
2022/08/17 09:10:41;;;;;;;52.33;31.05;;;21.50;99.90;;;;;;5035467;28;20747;-62
2022/08/17 09:13:10;;;;;;;57.30;31.85;;;21.30;99.90;;;;;;5017420;28;20221;-63
2022/08/17 09:15:48;;;;;;;54.35;32.75;;;21.40;99.90;;;;;;5035125;28;20183;-62
2022/08/17 09:18:27;;;;;;;51.67;31.60;;;21.60;99.90;;;;;;5038208;28;20252;-65
2022/08/17 09:21:20;;;;;;;61.60;33.17;;;21.70;99.90;;;;;;5038673;28;20651;-61
2022/08/17 09:24:11;;;;;;;56.33;32.45;;;21.80;99.90;;;;;;5036449;28;20189;-61
2022/08/17 09:26:38;;;;;;;55.80;34.03;;;22.00;99.90;;;;;;5037910;28;20191;-61
2022/08/17 09:29:08;;;;;;;62.92;36.97;;;22.10;99.90;;;;;;5037867;28;20183;-61
2022/08/17 09:31:51;;;;;;;63.67;35.08;;;22.20;99.90;;;;;;5033235;28;20198;-61
2022/08/17 09:34:22;;;;;;;64.55;33.65;;;22.40;99.90;;;;;;5019619;28;20190;-61
2022/08/17 09:37:11;;;;;;;59.25;33.75;;;22.50;99.90;;;;;;5031483;28;20190;-61
2022/08/17 09:40:10;;;;;;;60.17;34.38;;;22.50;99.90;;;;;;5014979;28;20261;-61
2022/08/17 09:42:51;;;;;;;58.45;33.22;;;22.50;99.90;;;;;;5032820;28;20654;-61
2022/08/17 09:45:29;;;;;;;70.15;35.80;;;22.50;99.90;;;;;;5037639;28;20232;-61
2022/08/17 09:47:58;;;;;;;68.70;37.67;;;22.40;99.90;;;;;;5033843;28;20189;-61
2022/08/17 09:50:33;;;;;;;64.15;37.17;;;22.50;99.90;;;;;;5031945;28;20272;-61
2022/08/17 09:53:01;;;;;;;64.88;36.13;;;22.40;99.90;;;;;;5033489;28;20186;-61
2022/08/17 09:55:37;;;;;;;67.50;37.10;;;22.50;99.90;;;;;;5034261;28;20187;-61
2022/08/17 09:58:16;;;;;;;70.57;39.17;;;22.40;99.90;;;;;;5026191;28;20213;-61
2022/08/17 10:00:50;;;;;;;74.80;37.05;;;22.30;99.90;;;;;;5034391;28;20699;-61
2022/08/17 10:03:49;;;;;;;64.55;38.30;;;22.20;99.90;;;;;;5031766;28;20186;-61
2022/08/17 10:06:21;;;;;;;71.95;38.80;;;22.20;99.90;;;;;;5027884;28;20186;-62
2022/08/17 10:09:09;;;;;;;64.55;35.53;;;22.30;99.90;;;;;;5021842;28;20179;-62
2022/08/17 10:14:49;;;;;;;65.90;36.45;;;22.50;99.90;;;;;;5023049;28;20226;-62
2022/08/17 10:17:14;;;;;;;53.00;30.00;;;22.60;99.90;;;;;;5021745;28;20189;-62
2022/08/17 10:19:53;;;;;;;53.33;31.92;;;22.70;99.90;;;;;;5033187;28;20203;-62
2022/08/17 10:28:04;;;;;;;58.75;32.95;;;22.80;99.90;;;;;;5034661;28;20209;-63
2022/08/17 10:30:35;;;;;;;56.95;33.67;;;23.00;99.90;;;;;;5028355;28;20242;-60
2022/08/17 10:33:13;;;;;;;64.25;35.50;;;23.30;99.90;;;;;;5025494;28;20206;-61
2022/08/17 10:36:01;;;;;;;53.70;31.08;;;23.20;99.90;;;;;;5033427;28;20183;-61
2022/08/17 10:38:56;;;;;;;60.88;34.25;;;23.30;99.90;;;;;;5034833;28;20205;-61
2022/08/17 10:41:29;;;;;;;58.88;31.55;;;23.40;99.90;;;;;;5037767;28;20209;-60
2022/08/17 10:44:13;;;;;;;56.20;32.30;;;23.60;99.90;;;;;;5023745;28;20190;-61
2022/08/17 10:47:05;;;;;;;67.25;32.83;;;23.50;99.90;;;;;;5028437;28;20222;-61
2022/08/17 10:49:34;;;;;;;56.92;33.03;;;23.60;99.90;;;;;;5032121;28;20218;-60
2022/08/17 10:52:24;;;;;;;56.72;31.50;;;23.60;99.90;;;;;;5032078;28;20201;-60
2022/08/17 10:54:50;;;;;;;48.10;30.35;;;23.70;99.90;;;;;;5031701;28;20530;-62
2022/08/17 10:57:35;;;;;;;72.95;32.90;;;24.10;99.90;;;;;;5032135;28;20214;-61
2022/08/17 11:00:07;;;;;;;48.80;30.65;;;24.10;99.90;;;;;;5022554;28;20186;-61
2022/08/17 11:02:38;;;;;;;52.72;27.98;;;23.90;99.90;;;;;;5032387;28;20183;-61
2022/08/17 11:05:22;;;;;;;51.50;30.05;;;24.00;99.90;;;;;;5026539;28;20182;-62
2022/08/17 11:07:57;;;;;;;42.22;25.27;;;23.90;99.90;;;;;;5034054;28;20185;-61
2022/08/17 11:11:08;;;;;;;42.20;24.98;;;24.00;99.90;;;;;;5033108;28;20198;-61
2022/08/17 11:14:00;;;;;;;49.30;28.27;;;23.90;99.90;;;;;;5024460;28;20197;-61
2022/08/17 11:16:57;;;;;;;43.28;26.20;;;23.80;99.90;;;;;;5027051;28;20813;-61
2022/08/17 11:19:43;;;;;;;40.85;24.30;;;23.70;99.90;;;;;;5032254;28;20224;-60
2022/08/17 11:22:32;;;;;;;90.03;29.88;;;23.50;99.90;;;;;;5032785;28;20266;-61
2022/08/17 11:25:11;;;;;;;39.35;23.38;;;23.50;99.90;;;;;;5027330;28;20661;-61
2022/08/17 11:27:36;;;;;;;40.03;22.73;;;23.30;99.90;;;;;;5033206;28;20185;-61
2022/08/17 11:30:05;;;;;;;41.35;22.92;;;23.20;99.90;;;;;;5031924;28;20214;-61
2022/08/17 11:32:41;;;;;;;34.83;21.55;;;23.30;99.90;;;;;;5031216;28;20222;-61
2022/08/17 11:35:28;;;;;;;32.20;21.17;;;23.30;99.90;;;;;;5026119;28;20179;-61
2022/08/17 11:38:12;;;;;;;40.63;23.05;;;23.20;99.90;;;;;;5024441;28;20285;-61
2022/08/17 11:40:56;;;;;;;31.08;19.50;;;23.20;99.90;;;;;;5021423;28;20600;-61
2022/08/17 11:43:45;;;;;;;28.60;19.02;;;23.30;99.90;;;;;;5033973;28;20202;-61
2022/08/17 11:52:52;;;;;;;29.98;19.70;;;23.40;99.90;;;;;;4997683;28;20211;-61
2022/08/17 11:55:31;;;;;;;25.75;17.23;;;23.70;99.90;;;;;;5031791;28;20195;-61
2022/08/17 11:58:02;;;;;;;28.25;16.77;;;23.90;99.90;;;;;;5020158;28;20185;-62
2022/08/17 12:00:50;;;;;;;21.95;14.50;;;24.20;99.90;;;;;;5025569;28;20198;-62
2022/08/17 12:03:33;;;;;;;25.88;16.52;;;24.80;99.90;;;;;;5023156;28;20635;-61
2022/08/17 12:06:20;;;;;;;27.15;14.70;;;25.30;99.90;;;;;;5024365;28;20187;-63
2022/08/17 12:09:09;;;;;;;18.90;13.18;;;25.70;99.90;;;;;;5019917;28;20185;-62
2022/08/17 12:12:09;;;;;;;13.75;9.85;;;25.90;99.90;;;;;;5028792;28;20203;-62
2022/08/17 12:14:37;;;;;;;16.35;10.75;;;26.00;99.90;;;;;;5024271;28;20232;-62
2022/08/17 12:17:02;;;;;;;19.02;13.18;;;25.90;99.90;;;;;;5029914;28;20175;-62
2022/08/17 12:19:32;;;;;;;30.10;12.10;;;26.30;99.90;;;;;;5030865;28;20221;-61
2022/08/17 12:22:30;;;;;;;15.10;9.98;;;26.40;99.90;;;;;;5028639;28;20194;-61
2022/08/17 12:25:24;;;;;;;14.43;10.73;;;26.20;99.90;;;;;;5032011;28;20248;-61
2022/08/17 12:27:50;;;;;;;17.05;12.38;;;25.90;99.90;;;;;;5029396;28;20268;-61
2022/08/17 12:30:19;;;;;;;26.80;10.75;;;26.00;99.90;;;;;;5027592;28;20238;-61
2022/08/17 12:32:47;;;;;;;14.40;10.80;;;26.10;99.90;;;;;;5030866;28;20186;-62
2022/08/17 12:35:32;;;;;;;15.38;9.60;;;25.90;99.90;;;;;;5031142;28;20186;-61
2022/08/17 12:37:58;;;;;;;33.13;12.23;;;25.70;99.90;;;;;;5032206;28;20277;-62
2022/08/17 12:40:27;;;;;;;13.55;10.52;;;25.80;99.90;;;;;;5019694;28;20195;-61
2022/08/17 12:43:03;;;;;;;12.75;9.18;;;25.20;99.90;;;;;;5031222;28;20175;-61
2022/08/17 12:45:38;;;;;;;14.38;9.60;;;25.40;99.90;;;;;;5032297;28;20197;-61
2022/08/17 12:48:21;;;;;;;10.02;7.70;;;25.70;99.90;;;;;;5020727;28;20181;-61
2022/08/17 12:50:49;;;;;;;12.93;9.38;;;25.70;99.90;;;;;;5030500;28;20229;-61
2022/08/17 12:53:25;;;;;;;12.20;9.05;;;25.90;99.90;;;;;;5030561;28;20651;-61
2022/08/17 12:55:52;;;;;;;10.55;8.60;;;26.00;99.90;;;;;;5031409;28;20174;-61
2022/08/17 12:58:25;;;;;;;7.78;6.25;;;26.10;99.90;;;;;;5031716;28;20183;-61
2022/08/17 13:01:00;;;;;;;10.77;6.60;;;26.10;99.90;;;;;;5032141;28;20256;-61
2022/08/17 13:03:30;;;;;;;22.42;7.75;;;26.30;99.90;;;;;;5031564;28;20189;-61
2022/08/17 13:05:59;;;;;;;13.75;7.65;;;26.50;99.90;;;;;;5031709;28;20270;-61
2022/08/17 13:08:30;;;;;;;8.23;7.20;;;26.60;99.90;;;;;;5031672;28;20179;-61
2022/08/17 13:11:00;;;;;;;10.48;6.95;;;26.60;99.90;;;;;;5030398;28;20213;-61
2022/08/17 13:13:29;;;;;;;27.48;12.68;;;26.80;99.90;;;;;;5031271;28;20183;-61
2022/08/17 13:16:00;;;;;;;19.00;8.15;;;26.90;99.90;;;;;;5027071;28;20640;-62
2022/08/17 13:18:34;;;;;;;11.80;8.82;;;27.10;99.90;;;;;;5029018;28;20210;-62
2022/08/17 13:21:00;;;;;;;10.63;7.05;;;26.90;99.90;;;;;;5030886;28;20199;-62
2022/08/17 13:23:28;;;;;;;11.95;6.65;;;26.70;99.90;;;;;;5037883;28;20191;-62
2022/08/17 13:26:14;;;;;;;11.93;8.88;;;26.50;99.90;;;;;;5033094;28;20184;-61
2022/08/17 13:28:48;;;;;;;10.63;8.68;;;26.70;99.90;;;;;;5033960;28;20270;-62
2022/08/17 13:31:41;;;;;;;9.07;7.60;;;26.30;99.90;;;;;;5014117;28;20214;-61
2022/08/17 13:34:24;;;;;;;13.43;9.05;;;26.10;99.90;;;;;;5026490;28;20203;-62
2022/08/17 13:37:12;;;;;;;13.75;8.85;;;26.10;99.90;;;;;;5025872;28;20183;-61